createdAt,value
2018-07-24T00:00:49.959Z,94.8
2018-07-24T00:02:50.346Z,95.1
2018-07-24T00:04:50.027Z,95.7
2018-07-24T00:06:50.529Z,94.7
2018-07-24T00:08:50.787Z,94.7
2018-07-24T00:10:50.346Z,94.7
2018-07-24T00:12:50.768Z,94.3
2018-07-24T00:14:49.968Z,94.8
2018-07-24T00:16:50.542Z,95.6
2018-07-24T00:18:50.795Z,96.5
2018-07-24T00:20:49.958Z,95.5
2018-07-24T00:22:50.176Z,95.5
2018-07-24T00:24:50.647Z,95.4
2018-07-24T00:26:50.092Z,95.0
2018-07-24T00:28:50.265Z,96.1
2018-07-24T00:30:50.524Z,96.7
2018-07-24T00:32:50.751Z,97.3
2018-07-24T00:34:50.612Z,96.5
2018-07-24T00:36:50.235Z,96.5
2018-07-24T00:38:50.452Z,96.0
2018-07-24T00:40:50.607Z,96.4
2018-07-24T00:42:50.872Z,96.5
2018-07-24T00:44:50.231Z,96.5
2018-07-24T00:46:50.650Z,96.6
2018-07-24T00:48:50.967Z,96.1
2018-07-24T00:50:50.322Z,96.5
2018-07-24T00:52:50.505Z,96.7
2018-07-24T00:54:50.686Z,97.2
2018-07-24T00:56:50.248Z,97.4
2018-07-24T00:58:50.437Z,97.8
2018-07-24T01:00:50.645Z,97.0
2018-07-24T01:02:50.820Z,97.3
2018-07-24T01:04:50.518Z,97.5
2018-07-24T01:06:49.933Z,97.3
2018-07-24T01:08:50.112Z,97.2
2018-07-24T01:10:50.460Z,97.2
2018-07-24T01:12:50.646Z,98.2
2018-07-24T01:14:50.865Z,98.2
2018-07-24T01:16:50.249Z,98.2
2018-07-24T01:18:50.473Z,98.2
2018-07-24T01:20:50.680Z,98.9
2018-07-24T01:22:50.967Z,99.1
2018-07-24T01:24:50.262Z,99.3
2018-07-24T01:26:50.637Z,99.1
2018-07-24T01:28:50.926Z,99.0
2018-07-24T01:30:50.116Z,99.3
2018-07-24T01:32:50.407Z,99.2
2018-07-24T01:34:50.007Z,99.1
2018-07-24T01:36:50.461Z,99.4
2018-07-24T01:38:50.594Z,99.3
2018-07-24T01:40:50.830Z,99.5
2018-07-24T01:42:50.301Z,99.7
2018-07-24T01:44:50.479Z,99.4
2018-07-24T01:46:50.898Z,99.9
2018-07-24T01:48:50.353Z,99.9
2018-07-24T01:50:50.556Z,100.0
2018-07-24T01:52:50.717Z,100.0
2018-07-24T01:54:50.080Z,100.0
2018-07-24T01:56:50.517Z,100.0
2018-07-24T01:58:50.676Z,100.0
2018-07-24T02:00:50.890Z,100.0
2018-07-24T02:02:50.232Z,100.0
2018-07-24T02:04:50.959Z,100.0
2018-07-24T02:06:50.366Z,100.0
2018-07-24T02:08:50.622Z,100.0
2018-07-24T02:10:50.220Z,100.0
2018-07-24T02:12:50.412Z,100.0
2018-07-24T02:14:50.631Z,100.0
2018-07-24T02:16:50.239Z,100.0
2018-07-24T02:18:50.381Z,100.0
2018-07-24T02:20:50.560Z,100.0
2018-07-24T02:22:50.787Z,100.0
2018-07-24T02:24:50.001Z,100.0
2018-07-24T02:26:50.623Z,100.0
2018-07-24T02:28:50.873Z,100.0
2018-07-24T02:30:50.135Z,100.0
2018-07-24T02:32:50.420Z,100.0
2018-07-24T02:34:50.084Z,100.0
2018-07-24T02:36:50.573Z,100.0
2018-07-24T02:38:50.793Z,100.0
2018-07-24T02:40:49.982Z,100.0
2018-07-24T02:42:50.438Z,100.0
2018-07-24T02:44:50.777Z,100.0
2018-07-24T02:46:50.147Z,100.0
2018-07-24T02:48:50.297Z,100.0
2018-07-24T02:50:50.604Z,100.0
2018-07-24T02:52:50.807Z,100.0
2018-07-24T02:54:49.976Z,100.0
2018-07-24T02:56:50.543Z,100.0
2018-07-24T02:58:50.736Z,100.0
2018-07-24T03:00:49.977Z,100.0
2018-07-24T03:02:50.411Z,100.0
2018-07-24T03:04:50.141Z,100.0
2018-07-24T03:06:50.652Z,100.0
2018-07-24T03:08:50.916Z,100.0
2018-07-24T03:10:50.329Z,100.0
2018-07-24T03:12:50.473Z,100.0
2018-07-24T03:14:50.687Z,100.0
2018-07-24T03:16:50.188Z,100.0
2018-07-24T03:18:50.344Z,100.0
2018-07-24T03:20:50.576Z,100.0
2018-07-24T03:22:50.823Z,100.0
2018-07-24T03:24:50.113Z,100.0
2018-07-24T03:26:50.623Z,100.0
2018-07-24T03:28:50.872Z,100.0
2018-07-24T03:30:50.154Z,100.0
2018-07-24T03:32:50.460Z,100.0
2018-07-24T03:34:49.935Z,100.0
2018-07-24T03:36:50.454Z,100.0
2018-07-24T03:38:50.639Z,100.0
2018-07-24T03:40:50.928Z,100.0
2018-07-24T03:42:50.409Z,100.0
2018-07-24T03:44:50.844Z,100.0
2018-07-24T03:46:50.173Z,100.0
2018-07-24T03:48:50.543Z,100.0
2018-07-24T03:50:50.006Z,100.0
2018-07-24T03:52:50.297Z,100.0
2018-07-24T03:54:50.564Z,100.0
2018-07-24T03:56:50.288Z,100.0
2018-07-24T03:58:50.627Z,100.0
2018-07-24T04:00:50.907Z,100.0
2018-07-24T04:02:50.198Z,100.0
2018-07-24T04:04:50.091Z,100.0
2018-07-24T04:06:50.520Z,100.0
2018-07-24T04:08:50.831Z,100.0
2018-07-24T04:10:50.108Z,100.0
2018-07-24T04:12:50.284Z,100.0
2018-07-24T04:14:50.552Z,100.0
2018-07-24T04:16:50.287Z,100.0
2018-07-24T04:18:50.532Z,100.0
2018-07-24T04:20:50.721Z,100.0
2018-07-24T04:22:50.901Z,100.0
2018-07-24T04:24:50.492Z,100.0
2018-07-24T04:26:50.911Z,100.0
2018-07-24T04:28:50.040Z,100.0
2018-07-24T04:30:51.119Z,100.0
2018-07-24T04:32:50.397Z,100.0
2018-07-24T04:34:50.012Z,99.6
2018-07-24T04:36:50.346Z,99.9
2018-07-24T04:38:50.725Z,99.3
2018-07-24T04:40:50.883Z,99.1
2018-07-24T04:42:50.030Z,99.1
2018-07-24T04:44:50.410Z,98.5
2018-07-24T04:46:50.865Z,98.8
2018-07-24T04:48:50.230Z,98.4
2018-07-24T04:50:50.427Z,98.1
2018-07-24T04:52:50.668Z,98.4
2018-07-24T04:54:50.857Z,98.2
2018-07-24T04:56:50.285Z,98.2
2018-07-24T04:58:50.580Z,97.1
2018-07-24T05:00:50.007Z,97.3
2018-07-24T05:02:50.206Z,96.2
2018-07-24T05:04:50.719Z,96.4
2018-07-24T05:06:50.454Z,95.6
2018-07-24T05:08:50.789Z,95.3
2018-07-24T05:10:50.076Z,94.3
2018-07-24T05:12:50.497Z,93.7
2018-07-24T05:14:50.805Z,93.7
2018-07-24T05:16:50.993Z,92.9
2018-07-24T05:18:50.365Z,93.3
2018-07-24T05:20:50.566Z,92.4
2018-07-24T05:22:50.785Z,92.4
2018-07-24T05:24:50.280Z,92.5
2018-07-24T05:26:50.655Z,92.5
2018-07-24T05:28:50.906Z,91.7
2018-07-24T05:30:50.310Z,91.7
2018-07-24T05:32:50.514Z,90.0
2018-07-24T05:34:50.056Z,89.0
2018-07-24T05:36:50.909Z,89.5
2018-07-24T05:38:51.098Z,88.0
2018-07-24T05:40:50.281Z,88.0
2018-07-24T05:42:50.455Z,88.1
2018-07-24T05:44:50.747Z,88.7
2018-07-24T05:46:50.144Z,88.4
2018-07-24T05:48:50.692Z,86.6
2018-07-24T05:50:49.989Z,86.1
2018-07-24T05:52:50.217Z,86.0
2018-07-24T05:54:50.430Z,86.8
2018-07-24T05:56:50.847Z,86.2
2018-07-24T05:58:50.460Z,86.5
2018-07-24T06:00:50.844Z,85.6
2018-07-24T06:02:50.038Z,84.1
2018-07-24T06:04:50.635Z,85.2
2018-07-24T06:06:49.989Z,84.9
2018-07-24T06:08:50.151Z,82.8
2018-07-24T06:10:50.356Z,81.3
2018-07-24T06:12:50.705Z,81.7
2018-07-24T06:14:50.950Z,82.0
2018-07-24T06:16:51.905Z,82.4
2018-07-24T06:18:50.283Z,80.9
2018-07-24T06:20:50.486Z,81.6
2018-07-24T06:22:50.827Z,79.7
2018-07-24T06:24:50.172Z,79.1
2018-07-24T06:26:50.732Z,79.1
2018-07-24T06:28:51.004Z,77.6
2018-07-24T06:30:50.298Z,76.0
2018-07-24T06:32:50.453Z,76.7
2018-07-24T06:34:50.064Z,76.4
2018-07-24T06:36:50.586Z,76.2
2018-07-24T06:38:50.731Z,76.0
2018-07-24T06:40:49.999Z,74.4
2018-07-24T06:42:50.366Z,75.8
2018-07-24T06:44:50.596Z,76.8
2018-07-24T06:46:50.123Z,75.4
2018-07-24T06:48:50.427Z,76.3
2018-07-24T06:50:50.654Z,75.6
2018-07-24T06:52:50.917Z,72.7
2018-07-24T06:54:50.276Z,69
2018-07-24T06:56:50.822Z,69
2018-07-24T06:58:50.184Z,69
2018-07-24T07:00:50.603Z,70
2018-07-24T07:02:50.833Z,70
2018-07-24T07:04:50.605Z,69
2018-07-24T07:06:50.055Z,69
2018-07-24T07:08:50.438Z,70
2018-07-24T07:10:50.595Z,69
2018-07-24T07:12:50.777Z,71.3
2018-07-24T07:14:50.052Z,71.3
2018-07-24T07:16:50.597Z,71.8
2018-07-24T07:18:49.953Z,71.7
2018-07-24T07:20:50.333Z,71.1
2018-07-24T07:22:50.773Z,71.5
2018-07-24T07:24:51.066Z,68
2018-07-24T07:26:50.607Z,68
2018-07-24T07:28:50.884Z,68
2018-07-24T07:30:49.990Z,69
2018-07-24T07:32:50.204Z,69
2018-07-24T07:34:50.871Z,69
2018-07-24T07:36:50.315Z,69
2018-07-24T07:38:50.443Z,68
2018-07-24T07:40:50.713Z,68
2018-07-24T07:42:49.962Z,68
2018-07-24T07:44:50.113Z,67
2018-07-24T07:46:50.546Z,68
2018-07-24T07:48:50.848Z,67
2018-07-24T07:50:49.976Z,67
2018-07-24T07:52:50.153Z,66
2018-07-24T07:54:50.445Z,67
2018-07-24T07:56:50.790Z,67
2018-07-24T07:58:50.643Z,67
2018-07-24T08:00:50.861Z,67
2018-07-24T08:02:50.375Z,67
2018-07-24T08:04:50.881Z,67
2018-07-24T08:06:50.466Z,66
2018-07-24T08:08:50.674Z,66
2018-07-24T08:10:50.940Z,65
2018-07-24T08:12:50.156Z,65
2018-07-24T08:14:50.355Z,66
2018-07-24T08:16:50.031Z,65
2018-07-24T08:18:50.260Z,65
2018-07-24T08:20:50.445Z,65
2018-07-24T08:22:50.677Z,65
2018-07-24T08:24:49.944Z,65
2018-07-24T08:26:50.417Z,65
2018-07-24T08:28:50.770Z,65
2018-07-24T08:30:49.999Z,65
2018-07-24T08:32:50.181Z,65
2018-07-24T08:34:50.708Z,65
2018-07-24T08:36:50.170Z,65
2018-07-24T08:38:50.314Z,65
2018-07-24T08:40:50.603Z,65
2018-07-24T08:42:50.842Z,64
2018-07-24T08:44:50.722Z,64
2018-07-24T08:46:50.237Z,64
2018-07-24T08:48:50.589Z,64
2018-07-24T08:50:50.833Z,64
2018-07-24T08:52:51.476Z,64
2018-07-24T08:54:54.211Z,64
2018-07-24T08:56:50.737Z,63
2018-07-24T08:58:50.045Z,63
2018-07-24T09:00:50.310Z,63
2018-07-24T09:02:50.460Z,63
2018-07-24T09:04:50.039Z,63
2018-07-24T09:06:50.556Z,63
2018-07-24T09:08:50.742Z,63
2018-07-24T09:10:50.955Z,62
2018-07-24T09:12:50.283Z,61
2018-07-24T09:14:50.413Z,61
2018-07-24T09:16:50.905Z,61
2018-07-24T09:18:50.181Z,61
2018-07-24T09:20:50.723Z,61
2018-07-24T09:22:49.972Z,60
2018-07-24T09:24:50.301Z,60
2018-07-24T09:26:50.863Z,61
2018-07-24T09:28:50.040Z,60
2018-07-24T09:30:50.274Z,60
2018-07-24T09:32:50.620Z,59
2018-07-24T09:34:50.169Z,59
2018-07-24T09:36:50.569Z,59
2018-07-24T09:38:50.019Z,59
2018-07-24T09:40:50.440Z,59
2018-07-24T09:42:50.640Z,59
2018-07-24T09:44:49.968Z,59
2018-07-24T09:46:50.366Z,59
2018-07-24T09:48:50.548Z,59
2018-07-24T09:50:50.016Z,57
2018-07-24T09:52:50.301Z,57
2018-07-24T09:54:50.452Z,57
2018-07-24T09:56:50.909Z,57
2018-07-24T09:58:50.217Z,58
2018-07-24T10:00:50.377Z,58
2018-07-24T10:02:50.682Z,55
2018-07-24T10:04:50.535Z,55
2018-07-24T10:06:50.078Z,55
2018-07-24T10:08:50.350Z,56
2018-07-24T10:10:50.693Z,56
2018-07-24T10:12:51.188Z,56
2018-07-24T10:14:50.538Z,55
2018-07-24T10:16:50.699Z,55
2018-07-24T10:18:50.387Z,55
2018-07-24T10:20:50.679Z,54
2018-07-24T10:22:50.768Z,53
2018-07-24T10:24:50.018Z,53
2018-07-24T10:26:50.654Z,50
2018-07-24T10:28:50.791Z,47
2018-07-24T10:30:50.050Z,47
2018-07-24T10:32:50.265Z,47
2018-07-24T10:34:50.860Z,46
2018-07-24T10:36:50.299Z,46
2018-07-24T10:38:50.499Z,47
2018-07-24T10:40:50.685Z,45
2018-07-24T10:42:50.877Z,45
2018-07-24T10:44:50.140Z,46
2018-07-24T10:46:50.627Z,46
2018-07-24T10:48:50.793Z,45
2018-07-24T10:50:50.058Z,45
2018-07-24T10:52:50.496Z,45
2018-07-24T10:54:50.720Z,44
2018-07-24T10:56:50.253Z,43
2018-07-24T10:58:50.413Z,43
2018-07-24T11:00:50.706Z,44
2018-07-24T11:02:49.982Z,44
2018-07-24T11:04:50.635Z,43
2018-07-24T11:06:50.033Z,44
2018-07-24T11:08:50.422Z,43
2018-07-24T11:10:50.939Z,43
2018-07-24T11:12:50.089Z,43
2018-07-24T11:14:50.343Z,43
2018-07-24T11:16:50.770Z,42
2018-07-24T11:18:50.920Z,42
2018-07-24T11:20:50.303Z,43
2018-07-24T11:22:52.503Z,43
2018-07-24T11:24:50.663Z,44
2018-07-24T11:26:50.171Z,43
2018-07-24T11:28:50.480Z,42
2018-07-24T11:30:50.882Z,42
2018-07-24T11:32:50.355Z,42
2018-07-24T11:34:50.028Z,41
2018-07-24T11:36:50.472Z,40
2018-07-24T11:38:50.605Z,40
2018-07-24T11:40:50.848Z,42
2018-07-24T11:42:50.202Z,42
2018-07-24T11:44:50.531Z,41
2018-07-24T11:46:50.008Z,41
2018-07-24T11:48:50.246Z,41
2018-07-24T11:50:50.384Z,41
2018-07-24T11:52:50.649Z,42
2018-07-24T11:54:50.880Z,42
2018-07-24T11:56:50.256Z,42
2018-07-24T11:58:50.693Z,42
2018-07-24T12:00:50.070Z,42
2018-07-24T12:02:50.204Z,42
2018-07-24T12:04:51.416Z,42
2018-07-24T12:06:50.008Z,42
2018-07-24T12:08:50.185Z,42
2018-07-24T12:10:50.363Z,42
2018-07-24T12:12:50.684Z,42
2018-07-24T12:14:50.360Z,42
2018-07-24T12:16:50.737Z,42
2018-07-24T12:18:50.939Z,42
2018-07-24T12:20:50.342Z,41
2018-07-24T12:22:50.481Z,41
2018-07-24T12:24:50.658Z,41
2018-07-24T12:26:50.222Z,40
2018-07-24T12:28:50.513Z,41
2018-07-24T12:30:50.659Z,41
2018-07-24T12:32:49.944Z,40
2018-07-24T12:34:50.583Z,40
2018-07-24T12:36:50.090Z,40
2018-07-24T12:38:50.285Z,41
2018-07-24T12:40:50.507Z,40
2018-07-24T12:42:50.750Z,40
2018-07-24T12:44:50.964Z,40
2018-07-24T12:46:50.505Z,40
2018-07-24T12:48:50.739Z,40
2018-07-24T12:50:50.882Z,40
2018-07-24T12:52:50.115Z,39
2018-07-24T12:54:50.413Z,39
2018-07-24T12:56:49.958Z,40
2018-07-24T12:58:50.127Z,39
2018-07-24T13:00:50.423Z,40
2018-07-24T13:02:50.785Z,40
2018-07-24T13:04:50.511Z,39
2018-07-24T13:06:50.917Z,39
2018-07-24T13:08:50.243Z,39
2018-07-24T13:10:50.840Z,39
2018-07-24T13:12:50.052Z,39
2018-07-24T13:14:50.372Z,39
2018-07-24T13:16:50.795Z,39
2018-07-24T13:18:49.987Z,39
2018-07-24T13:20:50.302Z,39
2018-07-24T13:22:50.471Z,39
2018-07-24T13:24:50.586Z,39
2018-07-24T13:26:50.068Z,38
2018-07-24T13:28:50.291Z,38
2018-07-24T13:30:50.531Z,38
2018-07-24T13:32:51.145Z,38
2018-07-24T13:34:50.630Z,38
2018-07-24T13:36:50.120Z,37
2018-07-24T13:38:50.342Z,37
2018-07-24T13:40:50.573Z,37
2018-07-24T13:42:50.838Z,37
2018-07-24T13:44:49.989Z,37
2018-07-24T13:46:50.388Z,37
2018-07-24T13:48:50.626Z,38
2018-07-24T13:50:50.103Z,38
2018-07-24T13:52:50.236Z,36
2018-07-24T13:54:50.511Z,37
2018-07-24T13:56:50.095Z,38
2018-07-24T13:58:50.518Z,37
2018-07-24T14:00:50.774Z,37
2018-07-24T14:02:50.018Z,37
2018-07-24T14:04:50.651Z,37
2018-07-24T14:06:50.094Z,37
2018-07-24T14:08:50.190Z,35
2018-07-24T14:10:50.439Z,35
2018-07-24T14:12:50.680Z,36
2018-07-24T14:14:50.907Z,37
2018-07-24T14:16:50.405Z,37
2018-07-24T14:18:50.702Z,37
2018-07-24T14:20:50.885Z,37
2018-07-24T14:22:50.560Z,37
2018-07-24T14:24:50.807Z,36
2018-07-24T14:26:50.547Z,35
2018-07-24T14:28:50.844Z,35
2018-07-24T14:30:49.946Z,35
2018-07-24T14:32:50.127Z,36
2018-07-24T14:34:50.649Z,35
2018-07-24T14:36:50.515Z,34
2018-07-24T14:38:50.839Z,34
2018-07-24T14:40:50.338Z,35
2018-07-24T14:42:50.535Z,34
2018-07-24T14:44:50.712Z,34
2018-07-24T14:46:50.159Z,34
2018-07-24T14:48:50.423Z,34
2018-07-24T14:50:50.735Z,35
2018-07-24T14:52:50.960Z,35
2018-07-24T14:54:50.613Z,35
2018-07-24T14:56:50.030Z,34
2018-07-24T14:58:51.105Z,34
2018-07-24T15:00:50.321Z,35
2018-07-24T15:02:50.530Z,35
2018-07-24T15:04:51.123Z,35
2018-07-24T15:06:50.675Z,35
2018-07-24T15:08:49.993Z,35
2018-07-24T15:10:50.110Z,35
2018-07-24T15:12:50.399Z,36
2018-07-24T15:14:50.542Z,36
2018-07-24T15:16:50.028Z,34
2018-07-24T15:18:50.251Z,35
2018-07-24T15:20:50.628Z,35
2018-07-24T15:22:50.873Z,35
2018-07-24T15:24:50.095Z,35
2018-07-24T15:26:50.809Z,35
2018-07-24T15:28:52.031Z,35
2018-07-24T15:30:50.242Z,34
2018-07-24T15:32:50.487Z,35
2018-07-24T15:34:51.506Z,35
2018-07-24T15:36:49.978Z,36
2018-07-24T15:38:50.210Z,36
2018-07-24T15:40:50.445Z,35
2018-07-24T15:42:50.644Z,34
2018-07-24T15:44:50.879Z,34
2018-07-24T15:46:51.082Z,35
2018-07-24T15:48:50.418Z,34
2018-07-24T15:50:50.721Z,34
2018-07-24T15:52:50.061Z,34
2018-07-24T15:54:50.192Z,34
2018-07-24T15:56:50.647Z,35
2018-07-24T15:58:50.907Z,34
2018-07-24T16:00:50.095Z,34
2018-07-24T16:02:50.260Z,34
2018-07-24T16:04:50.884Z,34
2018-07-24T16:06:50.307Z,35
2018-07-24T16:08:50.408Z,36
2018-07-24T16:10:50.725Z,35
2018-07-24T16:12:50.043Z,36
2018-07-24T16:14:50.192Z,35
2018-07-24T16:16:50.612Z,35
2018-07-24T16:18:50.895Z,36
2018-07-24T16:20:50.058Z,34
2018-07-24T16:22:50.197Z,34
2018-07-24T16:24:50.528Z,34
2018-07-24T16:26:50.931Z,36
2018-07-24T16:28:50.058Z,34
2018-07-24T16:30:50.347Z,34
2018-07-24T16:32:50.580Z,34
2018-07-24T16:34:50.403Z,35
2018-07-24T16:36:50.824Z,35
2018-07-24T16:38:50.162Z,36
2018-07-24T16:40:50.403Z,36
2018-07-24T16:42:50.713Z,34
2018-07-24T16:44:49.978Z,34
2018-07-24T16:46:50.389Z,33
2018-07-24T16:48:50.739Z,34
2018-07-24T16:50:50.944Z,34
2018-07-24T16:52:50.163Z,34
2018-07-24T16:54:50.392Z,34
2018-07-24T16:56:50.756Z,34
2018-07-24T16:58:50.874Z,34
2018-07-24T17:00:50.047Z,34
2018-07-24T17:02:50.846Z,34
2018-07-24T17:04:50.476Z,34
2018-07-24T17:06:50.018Z,34
2018-07-24T17:08:50.272Z,34
2018-07-24T17:10:50.633Z,34
2018-07-24T17:12:49.936Z,33
2018-07-24T17:14:50.370Z,33
2018-07-24T17:16:50.774Z,32
2018-07-24T17:18:50.912Z,29.2
2018-07-24T17:20:50.259Z,29.7
2018-07-24T17:22:50.540Z,29.9
2018-07-24T17:24:50.661Z,29.9
2018-07-24T17:26:50.197Z,30.8
2018-07-24T17:28:50.472Z,32.3
2018-07-24T17:30:50.626Z,32.5
2018-07-24T17:32:50.824Z,31.3
2018-07-24T17:34:50.507Z,32.5
2018-07-24T17:36:50.057Z,32.1
2018-07-24T17:38:50.198Z,32.9
2018-07-24T17:40:50.981Z,31.7
2018-07-24T17:42:50.454Z,31.9
2018-07-24T17:44:50.596Z,32.9
2018-07-24T17:46:50.159Z,32.9
2018-07-24T17:48:50.855Z,34.4
2018-07-24T17:50:50.118Z,33.5
2018-07-24T17:52:50.419Z,35.2
2018-07-24T17:54:50.680Z,33.0
2018-07-24T17:56:50.400Z,33.1
2018-07-24T17:58:50.645Z,33.4
2018-07-24T18:00:50.902Z,35.0
2018-07-24T18:02:50.231Z,36.8
2018-07-24T18:04:50.837Z,36.3
2018-07-24T18:06:50.282Z,35.2
2018-07-24T18:08:50.478Z,35.3
2018-07-24T18:10:50.826Z,35.4
2018-07-24T18:12:50.033Z,35.6
2018-07-24T18:14:50.636Z,36.9
2018-07-24T18:16:50.127Z,36.8
2018-07-24T18:18:50.436Z,36.6
2018-07-24T18:20:50.731Z,36.2
2018-07-24T18:22:50.253Z,37.5
2018-07-24T18:24:50.423Z,38.8
2018-07-24T18:26:50.865Z,37.2
2018-07-24T18:28:50.193Z,37.6
2018-07-24T18:30:50.301Z,37.6
2018-07-24T18:32:50.469Z,39.7
2018-07-24T18:34:50.262Z,40.4
2018-07-24T18:36:50.705Z,40.6
2018-07-24T18:38:50.234Z,39.5
2018-07-24T18:40:50.585Z,40.7
2018-07-24T18:42:50.921Z,42.9
2018-07-24T18:44:50.144Z,41.5
2018-07-24T18:46:51.092Z,43.6
2018-07-24T18:48:50.272Z,44.0
2018-07-24T18:50:50.425Z,44.3
2018-07-24T18:52:50.700Z,46.0
2018-07-24T18:54:50.891Z,47.6
2018-07-24T18:56:50.270Z,50.3
2018-07-24T18:58:51.036Z,50.5
2018-07-24T19:00:50.318Z,49.1
2018-07-24T19:02:50.622Z,51.4
2018-07-24T19:04:50.402Z,51.6
2018-07-24T19:06:50.749Z,52.6
2018-07-24T19:08:50.874Z,53.8
2018-07-24T19:10:50.100Z,52.7
2018-07-24T19:12:50.378Z,52.8
2018-07-24T19:14:50.702Z,52.6
2018-07-24T19:16:50.371Z,55.2
2018-07-24T19:18:50.621Z,56.1
2018-07-24T19:20:50.952Z,56.3
2018-07-24T19:22:50.131Z,55.0
2018-07-24T19:24:50.320Z,54.9
2018-07-24T19:26:50.878Z,54.7
2018-07-24T19:28:50.146Z,55.5
2018-07-24T19:30:50.621Z,56.2
2018-07-24T19:32:50.803Z,56.2
2018-07-24T19:34:50.700Z,57.0
2018-07-24T19:36:50.233Z,59.4
2018-07-24T19:38:50.400Z,60.6
2018-07-24T19:40:50.593Z,60.8
2018-07-24T19:42:50.000Z,60.4
2018-07-24T19:44:50.066Z,58.7
2018-07-24T19:46:50.553Z,60.4
2018-07-24T19:48:50.817Z,60.6
2018-07-24T19:50:49.944Z,60.9
2018-07-24T19:52:50.179Z,61.9
2018-07-24T19:54:50.634Z,61.8
2018-07-24T19:56:50.030Z,62.8
2018-07-24T19:58:50.210Z,61.3
2018-07-24T20:00:50.459Z,62.5
2018-07-24T20:02:50.643Z,63.0
2018-07-24T20:04:50.505Z,62.5
2018-07-24T20:06:50.069Z,63.6
2018-07-24T20:08:50.210Z,62.9
2018-07-24T20:10:50.487Z,63.1
2018-07-24T20:12:50.898Z,63.6
2018-07-24T20:14:50.260Z,63.6
2018-07-24T20:16:50.711Z,64.2
2018-07-24T20:18:50.858Z,64.8
2018-07-24T20:20:50.161Z,64.8
2018-07-24T20:22:51.229Z,64.6
2018-07-24T20:24:50.477Z,64.9
2018-07-24T20:26:50.257Z,66.4
2018-07-24T20:28:51.291Z,66.6
2018-07-24T20:30:50.760Z,66.1
2018-07-24T20:32:50.025Z,66.2
2018-07-24T20:34:50.558Z,67.1
2018-07-24T20:36:50.880Z,67.5
2018-07-24T20:38:50.078Z,66.5
2018-07-24T20:40:50.453Z,66.7
2018-07-24T20:42:50.703Z,67.8
2018-07-24T20:44:50.036Z,68.4
2018-07-24T20:46:50.730Z,68.2
2018-07-24T20:48:49.945Z,69.5
2018-07-24T20:50:50.081Z,69.5
2018-07-24T20:52:50.361Z,69.2
2018-07-24T20:54:50.539Z,69.9
2018-07-24T20:56:49.956Z,69.9
2018-07-24T20:58:50.250Z,72.0
2018-07-24T21:00:50.445Z,71.6
2018-07-24T21:02:50.508Z,68.9
2018-07-24T21:04:50.055Z,71.0
2018-07-24T21:06:50.496Z,71.3
2018-07-24T21:08:50.674Z,70.6
2018-07-24T21:10:50.945Z,72.4
2018-07-24T21:12:50.229Z,71.2
2018-07-24T21:14:50.451Z,71.3
2018-07-24T21:16:50.916Z,70.6
2018-07-24T21:18:50.077Z,70.4
2018-07-24T21:20:50.863Z,70.3
2018-07-24T21:22:50.027Z,70.2
2018-07-24T21:24:50.152Z,72.3
2018-07-24T21:26:50.684Z,71.5
2018-07-24T21:28:50.806Z,72.2
2018-07-24T21:30:50.007Z,72.4
2018-07-24T21:32:50.320Z,74.2
2018-07-24T21:34:50.045Z,72.8
2018-07-24T21:36:50.414Z,73.1
2018-07-24T21:38:50.635Z,73.3
2018-07-24T21:40:50.878Z,73.5
2018-07-24T21:42:50.627Z,73.3
2018-07-24T21:44:49.983Z,75.1
2018-07-24T21:46:50.447Z,75.4
2018-07-24T21:48:50.964Z,74.6
2018-07-24T21:50:50.126Z,75.1
2018-07-24T21:52:50.386Z,75.4
2018-07-24T21:54:50.985Z,75.1
2018-07-24T21:56:50.444Z,75.5
2018-07-24T21:58:50.726Z,76.7
2018-07-24T22:00:50.451Z,75.3
2018-07-24T22:02:50.667Z,75.0
2018-07-24T22:04:50.567Z,75.5
2018-07-24T22:06:50.118Z,76.5
2018-07-24T22:08:51.447Z,75.5
2018-07-24T22:10:50.683Z,76.9
2018-07-24T22:12:50.911Z,77.3
2018-07-24T22:14:50.046Z,76.9
2018-07-24T22:16:50.507Z,77.4
2018-07-24T22:18:50.817Z,76.9
2018-07-24T22:20:50.127Z,78.2
2018-07-24T22:22:50.451Z,76.7
2018-07-24T22:24:50.715Z,76.7
2018-07-24T22:26:50.372Z,76.7
2018-07-24T22:28:50.144Z,77.7
2018-07-24T22:30:50.304Z,78.9
2018-07-24T22:32:50.632Z,78.3
2018-07-24T22:34:50.303Z,78.8
2018-07-24T22:36:50.704Z,79.2
2018-07-24T22:38:50.896Z,79.3
2018-07-24T22:40:50.314Z,80.3
2018-07-24T22:42:50.487Z,81.5
2018-07-24T22:44:50.751Z,81.3
2018-07-24T22:46:50.329Z,80.0
2018-07-24T22:48:50.556Z,79.7
2018-07-24T22:50:50.643Z,79.3
2018-07-24T22:52:50.016Z,79.6
2018-07-24T22:54:50.148Z,79.6
2018-07-24T22:56:51.251Z,80.2
2018-07-24T22:58:50.573Z,80.7
2018-07-24T23:00:50.805Z,80.5
2018-07-24T23:02:50.000Z,80.6
2018-07-24T23:04:50.493Z,82.0
2018-07-24T23:06:50.896Z,81.6
2018-07-24T23:08:50.034Z,82.1
2018-07-24T23:10:50.239Z,82.4
2018-07-24T23:12:50.458Z,83.2
2018-07-24T23:14:50.871Z,82.6
2018-07-24T23:16:50.431Z,82.7
2018-07-24T23:18:50.760Z,82.9
2018-07-24T23:20:50.931Z,82.1
2018-07-24T23:22:50.127Z,83.1
2018-07-24T23:24:50.291Z,82.2
2018-07-24T23:26:50.652Z,82.6
2018-07-24T23:28:49.996Z,83.0
2018-07-24T23:30:50.228Z,83.5
2018-07-24T23:32:50.366Z,83.8
2018-07-24T23:34:49.965Z,84.0
2018-07-24T23:36:50.449Z,83.8
2018-07-24T23:38:50.752Z,84.2
2018-07-24T23:40:50.911Z,84.8
2018-07-24T23:42:50.250Z,84.8
2018-07-24T23:44:50.554Z,83.3
2018-07-24T23:46:51.459Z,83.7
2018-07-24T23:48:50.680Z,83.2
2018-07-24T23:50:50.855Z,84.5
2018-07-24T23:52:50.054Z,84.1
2018-07-24T23:54:50.330Z,83.2
2018-07-24T23:56:50.628Z,83.1
2018-07-24T23:58:50.806Z,83.3
